createdAt,value
2024-01-15T00:00:13.354Z,1.2
2024-01-15T00:01:29.000Z,1.2
2024-01-15T00:02:45.929Z,1.2
2024-01-15T00:04:02.210Z,1.2
2024-01-15T00:05:18.495Z,1.2
2024-01-15T00:06:34.000Z,1.2
2024-01-15T00:07:51.000Z,1.2
2024-01-15T00:09:07.000Z,1.2
2024-01-15T00:10:23.686Z,1.2
2024-01-15T00:11:40.000Z,1.2
2024-01-15T00:14:12.578Z,1.2
2024-01-15T00:15:27.895Z,1.2
2024-01-15T00:16:44.163Z,1.3
2024-01-15T00:18:00.453Z,1.2
2024-01-15T00:19:16.773Z,1.2
2024-01-15T00:20:33.000Z,1.2
2024-01-15T00:21:49.000Z,1.3
2024-01-15T00:23:05.000Z,1.2
2024-01-15T00:24:21.919Z,1.2
2024-01-15T00:25:37.253Z,1.2
2024-01-15T00:26:52.555Z,1.3
2024-01-15T00:28:08.855Z,1.2
2024-01-15T00:29:25.155Z,1.2
2024-01-15T00:30:41.000Z,1.2
2024-01-15T00:31:57.000Z,1.2
2024-01-15T00:33:14.038Z,1.2
2024-01-15T00:34:30.000Z,1.2
2024-01-15T00:35:46.000Z,1.2
2024-01-15T00:37:02.920Z,1.1
2024-01-15T00:38:18.224Z,1.2
2024-01-15T00:40:50.823Z,1.2
2024-01-15T00:42:06.000Z,1.2
2024-01-15T00:43:22.408Z,1.2
2024-01-15T00:44:38.721Z,1.2
2024-01-15T00:45:55.008Z,1.1
2024-01-15T00:47:11.305Z,1.1
2024-01-15T00:48:27.594Z,1.1
2024-01-15T00:49:43.884Z,1.1
2024-01-15T00:51:00.188Z,1.1
2024-01-15T00:54:49.000Z,1.1
2024-01-15T00:56:04.371Z,1.1
2024-01-15T00:57:19.711Z,1.1
2024-01-15T00:58:35.000Z,1.1
2024-01-15T00:59:52.283Z,1.1
2024-01-15T01:01:08.564Z,1.1
2024-01-15T01:02:24.866Z,1.1
2024-01-15T01:03:41.166Z,1.1
2024-01-15T01:04:57.000Z,1.1
2024-01-15T01:06:13.761Z,1.1
2024-01-15T01:07:30.000Z,1.1
2024-01-15T01:08:45.369Z,1.1
2024-01-15T01:10:00.000Z,1.1
2024-01-15T01:11:16.963Z,1.1
2024-01-15T01:12:33.260Z,1.1
2024-01-15T01:13:49.552Z,1.1
2024-01-15T01:15:05.850Z,1.1
2024-01-15T01:16:22.154Z,1.1
2024-01-15T01:17:38.000Z,1.1
2024-01-15T01:18:54.737Z,1.1
2024-01-15T01:20:11.000Z,1.1
2024-01-15T01:21:27.303Z,1.1
2024-01-15T01:22:43.611Z,1.1
2024-01-15T01:23:59.901Z,1.1
2024-01-15T01:25:16.000Z,1.1
2024-01-15T01:26:31.506Z,1.1
2024-01-15T01:27:47.810Z,1.1
2024-01-15T01:29:04.106Z,1.1
2024-01-15T01:30:20.397Z,1.1
2024-01-15T01:31:36.000Z,1.1
2024-01-15T01:32:52.960Z,1.1
2024-01-15T01:34:09.278Z,1.1
2024-01-15T01:35:25.570Z,1.1
2024-01-15T01:36:41.870Z,1.1
2024-01-15T01:37:58.000Z,1
2024-01-15T01:39:14.000Z,1.1
2024-01-15T01:40:30.000Z,1
2024-01-15T01:41:47.000Z,1
2024-01-15T01:43:02.000Z,1
2024-01-15T01:44:18.682Z,1
2024-01-15T01:45:34.962Z,1
2024-01-15T01:46:51.270Z,1
2024-01-15T01:48:07.574Z,1
2024-01-15T01:49:23.859Z,1
2024-01-15T01:50:40.000Z,1
2024-01-15T01:51:56.420Z,1
2024-01-15T01:53:12.000Z,1
2024-01-15T01:54:29.037Z,1
2024-01-15T01:55:45.319Z,1
2024-01-15T01:57:01.615Z,1
2024-01-15T01:58:17.000Z,1
2024-01-15T01:59:34.220Z,1
2024-01-15T02:00:49.000Z,1
2024-01-15T02:02:05.804Z,1
2024-01-15T02:03:22.106Z,0.9
2024-01-15T02:04:38.398Z,1
2024-01-15T02:05:54.674Z,0.9
2024-01-15T02:07:11.000Z,0.9
2024-01-15T02:08:27.294Z,0.9
2024-01-15T02:09:43.000Z,0.9
2024-01-15T02:10:59.000Z,0.9
2024-01-15T02:12:16.148Z,0.9
2024-01-15T02:13:32.000Z,0.9
2024-01-15T02:14:48.740Z,0.9
2024-01-15T02:16:05.054Z,0.9
2024-01-15T02:17:21.331Z,0.9
2024-01-15T02:18:36.661Z,0.9
2024-01-15T02:19:52.950Z,0.9
2024-01-15T02:21:09.000Z,0.8
2024-01-15T02:22:25.512Z,0.8
2024-01-15T02:23:41.000Z,0.8
2024-01-15T02:24:58.133Z,0.8
2024-01-15T02:26:14.398Z,0.8
2024-01-15T02:27:30.714Z,0.8
2024-01-15T02:28:47.000Z,0.8
2024-01-15T02:30:03.300Z,0.8
2024-01-15T02:31:19.569Z,0.9
2024-01-15T02:32:35.885Z,0.8
2024-01-15T02:33:52.000Z,0.8
2024-01-15T02:35:08.000Z,0.8
2024-01-15T02:36:23.765Z,0.8
2024-01-15T02:37:40.095Z,0.8
2024-01-15T02:38:56.381Z,0.8
2024-01-15T02:40:12.000Z,0.8
2024-01-15T02:41:28.942Z,0.8
2024-01-15T02:42:45.259Z,0.8
2024-01-15T02:44:01.566Z,0.8
2024-01-15T02:45:17.851Z,0.9
2024-01-15T02:46:34.137Z,0.8
2024-01-15T02:47:50.438Z,0.8
2024-01-15T02:49:06.000Z,0.8
2024-01-15T02:50:23.006Z,0.8
2024-01-15T02:51:39.000Z,0.8
2024-01-15T02:52:55.621Z,0.8
2024-01-15T02:54:10.000Z,0.8
2024-01-15T02:55:27.228Z,0.8
2024-01-15T02:56:43.488Z,0.8
2024-01-15T02:57:59.807Z,0.9
2024-01-15T02:59:16.000Z,0.9
2024-01-15T03:00:32.393Z,0.9
2024-01-15T03:01:48.000Z,0.9
2024-01-15T03:03:04.985Z,0.9
2024-01-15T03:04:21.000Z,0.9
2024-01-15T03:05:37.569Z,0.9
2024-01-15T03:06:53.859Z,0.9
2024-01-15T03:08:10.135Z,0.9
2024-01-15T03:09:26.433Z,0.9
2024-01-15T03:10:42.000Z,0.9
2024-01-15T03:11:58.000Z,0.9
2024-01-15T03:13:14.352Z,0.9
2024-01-15T03:14:30.640Z,0.9
2024-01-15T03:15:46.910Z,0.9
2024-01-15T03:17:03.000Z,0.9
2024-01-15T03:18:19.529Z,0.9
2024-01-15T03:19:35.799Z,0.9
2024-01-15T03:20:52.112Z,0.9
2024-01-15T03:22:08.379Z,0.9
2024-01-15T03:23:24.000Z,0.9
2024-01-15T03:24:41.000Z,0.9
2024-01-15T03:25:57.292Z,0.9
2024-01-15T03:27:13.000Z,0.9
2024-01-15T03:28:29.857Z,0.9
2024-01-15T03:29:45.159Z,0.8
2024-01-15T03:31:01.482Z,0.8
2024-01-15T03:32:17.774Z,0.8
2024-01-15T03:33:34.068Z,0.8
2024-01-15T03:34:50.359Z,0.8
2024-01-15T03:36:06.660Z,0.8
2024-01-15T03:37:22.000Z,0.8
2024-01-15T03:38:39.254Z,0.8
2024-01-15T03:39:55.534Z,0.8
2024-01-15T03:41:11.829Z,0.8
2024-01-15T03:42:28.000Z,0.8
2024-01-15T03:43:44.415Z,0.8
2024-01-15T03:45:00.000Z,0.7
2024-01-15T03:46:17.013Z,0.7
2024-01-15T03:47:32.300Z,0.7
2024-01-15T03:48:48.000Z,0.6
2024-01-15T03:50:04.893Z,0.6
2024-01-15T03:51:21.180Z,0.6
2024-01-15T03:52:37.500Z,0.6
2024-01-15T03:53:53.790Z,0.6
2024-01-15T03:55:10.000Z,0.6
2024-01-15T03:56:26.376Z,0.6
2024-01-15T03:57:42.000Z,0.5
2024-01-15T03:58:58.965Z,0.5
2024-01-15T04:00:15.268Z,0.5
2024-01-15T04:01:31.549Z,0.5
2024-01-15T04:02:47.000Z,0.5
2024-01-15T04:04:04.118Z,0.4
2024-01-15T04:05:19.000Z,0.5
2024-01-15T04:06:35.000Z,0.5
2024-01-15T04:07:52.000Z,0.5
2024-01-15T04:09:08.346Z,0.5
2024-01-15T04:10:24.000Z,0.5
2024-01-15T04:11:39.958Z,0.5
2024-01-15T04:12:56.239Z,0.5
2024-01-15T04:14:12.512Z,0.5
2024-01-15T04:15:28.828Z,0.5
2024-01-15T04:16:45.097Z,0.5
2024-01-15T04:18:01.000Z,0.5
2024-01-15T04:19:17.000Z,0.4
2024-01-15T04:20:34.000Z,0.5
2024-01-15T04:21:50.308Z,0.5
2024-01-15T04:23:06.604Z,0.5
2024-01-15T04:24:22.890Z,0.6
2024-01-15T04:25:39.000Z,0.6
2024-01-15T04:26:55.492Z,0.6
2024-01-15T04:28:10.000Z,0.6
2024-01-15T04:29:27.083Z,0.6
2024-01-15T04:30:43.351Z,0.7
2024-01-15T04:31:59.653Z,0.7
2024-01-15T04:33:15.942Z,0.7
2024-01-15T04:34:32.272Z,0.7
2024-01-15T04:35:48.000Z,0.7
2024-01-15T04:37:04.847Z,0.7
2024-01-15T04:38:21.000Z,0.7
2024-01-15T04:39:37.437Z,0.7
2024-01-15T04:40:53.000Z,0.7
2024-01-15T04:42:09.999Z,0.7
2024-01-15T04:43:26.319Z,0.6
2024-01-15T04:44:42.000Z,0.6
2024-01-15T04:45:57.920Z,0.6
2024-01-15T04:47:14.220Z,0.6
2024-01-15T04:48:30.000Z,0.6
2024-01-15T04:49:46.805Z,0.5
2024-01-15T04:51:03.071Z,0.6
2024-01-15T04:52:19.409Z,0.5
2024-01-15T04:53:35.695Z,0.5
2024-01-15T04:54:51.979Z,0.5
2024-01-15T04:56:08.000Z,0.6
2024-01-15T04:57:24.572Z,0.5
2024-01-15T04:58:40.000Z,0.5
2024-01-15T04:59:57.173Z,0.5
2024-01-15T05:01:13.000Z,0.5
2024-01-15T05:02:29.869Z,0.5
2024-01-15T05:03:46.162Z,0.5
2024-01-15T05:05:02.467Z,0.5
2024-01-15T05:06:18.724Z,0.5
2024-01-15T05:07:35.026Z,0.5
2024-01-15T05:08:51.000Z,0.5
2024-01-15T05:10:07.643Z,0.5
2024-01-15T05:11:23.000Z,0.5
2024-01-15T05:12:40.210Z,0.5
2024-01-15T05:13:56.512Z,0.5
2024-01-15T05:15:12.791Z,0.5
2024-01-15T05:16:29.081Z,0.5
2024-01-15T05:17:45.416Z,0.6
2024-01-15T05:19:00.000Z,0.5
2024-01-15T05:20:17.000Z,0.6
2024-01-15T05:21:33.306Z,0.5
2024-01-15T05:22:49.600Z,0.5
2024-01-15T05:24:05.863Z,0.6
2024-01-15T05:25:22.180Z,0.6
2024-01-15T05:26:38.000Z,0.6
2024-01-15T05:27:54.000Z,0.6
2024-01-15T05:29:11.065Z,0.6
2024-01-15T05:30:27.366Z,0.6
2024-01-15T05:31:43.000Z,0.6
2024-01-15T05:32:59.951Z,0.6
2024-01-15T05:34:16.242Z,0.6
2024-01-15T05:35:31.559Z,0.6
2024-01-15T05:36:47.827Z,0.6
2024-01-15T05:38:04.145Z,0.6
2024-01-15T05:39:20.408Z,0.6
2024-01-15T05:40:36.721Z,0.6
2024-01-15T05:41:52.992Z,0.6
2024-01-15T05:43:09.000Z,0.6
2024-01-15T05:44:25.588Z,0.7
2024-01-15T05:45:41.898Z,0.7
2024-01-15T05:46:58.177Z,0.7
2024-01-15T05:48:14.461Z,0.7
2024-01-15T05:49:30.792Z,0.7
2024-01-15T05:50:47.054Z,0.7
2024-01-15T05:52:02.402Z,0.7
2024-01-15T05:53:18.662Z,0.7
2024-01-15T05:54:35.000Z,0.7
2024-01-15T05:55:51.281Z,0.7
2024-01-15T05:57:07.557Z,0.7
2024-01-15T05:58:23.835Z,0.7
2024-01-15T05:59:40.151Z,0.7
2024-01-15T06:00:56.426Z,0.7
2024-01-15T06:02:12.000Z,0.7
2024-01-15T06:03:29.045Z,0.7
2024-01-15T06:04:45.304Z,0.7
2024-01-15T06:06:01.618Z,0.7
2024-01-15T06:07:17.000Z,0.7
2024-01-15T06:08:34.212Z,0.7
2024-01-15T06:09:49.519Z,0.6
2024-01-15T06:11:05.798Z,0.7
2024-01-15T06:12:22.000Z,0.6
2024-01-15T06:13:38.392Z,0.6
2024-01-15T06:14:54.678Z,0.6
2024-01-15T06:16:11.001Z,0.6
2024-01-15T06:17:27.299Z,0.6
2024-01-15T06:18:43.587Z,0.6
2024-01-15T06:19:59.876Z,0.6
2024-01-15T06:21:16.000Z,0.6
2024-01-15T06:22:32.469Z,0.6
2024-01-15T06:23:48.728Z,0.6
2024-01-15T06:25:05.000Z,0.6
2024-01-15T06:26:21.314Z,0.6
2024-01-15T06:27:36.663Z,0.6
2024-01-15T06:28:52.921Z,0.6
2024-01-15T06:30:09.224Z,0.6
2024-01-15T06:31:25.522Z,0.6
2024-01-15T06:32:41.000Z,0.6
2024-01-15T06:33:58.098Z,0.6
2024-01-15T06:35:14.423Z,0.6
2024-01-15T06:36:30.646Z,0.6
2024-01-15T06:37:46.903Z,0.7
2024-01-15T06:39:03.139Z,0.6
2024-01-15T06:40:19.000Z,0.6
2024-01-15T06:41:35.609Z,0.6
2024-01-15T06:42:51.874Z,0.6
2024-01-15T06:44:08.132Z,0.6
2024-01-15T06:45:23.387Z,0.6
2024-01-15T06:46:39.602Z,0.6
2024-01-15T06:47:55.855Z,0.7
2024-01-15T06:49:12.108Z,0.7
2024-01-15T06:50:28.335Z,0.7
2024-01-15T06:51:44.549Z,0.7
2024-01-15T06:53:00.000Z,0.7
2024-01-15T06:54:17.065Z,0.7
2024-01-15T06:55:33.298Z,0.6
2024-01-15T06:56:49.536Z,0.7
2024-01-15T06:58:05.790Z,0.7
2024-01-15T06:59:21.989Z,0.7
2024-01-15T07:00:38.239Z,0.7
2024-01-15T07:01:54.497Z,0.7
2024-01-15T07:03:09.736Z,0.7
2024-01-15T07:04:26.000Z,0.7
2024-01-15T07:05:42.000Z,0.7
2024-01-15T07:06:58.492Z,0.7
2024-01-15T07:08:14.722Z,0.7
2024-01-15T07:09:30.957Z,0.7
2024-01-15T07:10:47.208Z,0.7
2024-01-15T07:12:03.453Z,0.7
2024-01-15T07:13:19.000Z,0.7
2024-01-15T07:14:35.928Z,0.7
2024-01-15T07:15:52.000Z,0.7
2024-01-15T07:17:08.414Z,0.7
2024-01-15T07:18:24.639Z,0.7
2024-01-15T07:19:40.883Z,0.6
2024-01-15T07:20:56.000Z,0.6
2024-01-15T07:22:12.361Z,0.6
2024-01-15T07:23:28.000Z,0.6
2024-01-15T07:24:44.000Z,0.6
2024-01-15T07:26:01.000Z,0.7
2024-01-15T07:27:17.335Z,0.7
2024-01-15T07:28:33.589Z,0.7
2024-01-15T07:29:49.796Z,0.7
2024-01-15T07:31:06.000Z,0.7
2024-01-15T07:32:22.000Z,0.7
2024-01-15T07:33:38.000Z,0.7
2024-01-15T07:34:54.772Z,0.8
2024-01-15T07:36:11.000Z,0.8
2024-01-15T07:37:27.000Z,0.8
2024-01-15T07:38:42.000Z,0.8
2024-01-15T07:39:58.730Z,0.8
2024-01-15T07:41:14.999Z,0.8
2024-01-15T07:42:31.000Z,0.8
2024-01-15T07:43:47.000Z,0.8
2024-01-15T07:45:03.000Z,0.8
2024-01-15T07:46:19.000Z,0.8
2024-01-15T07:47:36.193Z,0.8
2024-01-15T07:48:52.000Z,0.8
2024-01-15T07:50:08.679Z,0.8
2024-01-15T07:51:24.925Z,0.8
2024-01-15T07:52:41.000Z,0.8
2024-01-15T07:53:57.000Z,0.8
2024-01-15T07:55:13.650Z,0.8
2024-01-15T07:56:28.000Z,0.8
2024-01-15T07:57:45.000Z,0.8
2024-01-15T07:59:01.000Z,0.8
2024-01-15T08:00:17.000Z,0.8
2024-01-15T08:01:33.855Z,0.9
2024-01-15T08:02:50.089Z,0.9
2024-01-15T08:04:06.341Z,0.9
2024-01-15T08:05:22.000Z,0.8
2024-01-15T08:06:38.000Z,0.9
2024-01-15T08:07:55.000Z,0.9
2024-01-15T08:09:11.000Z,0.8
2024-01-15T08:10:27.000Z,0.9
2024-01-15T08:11:43.000Z,0.8
2024-01-15T08:12:59.988Z,0.9
2024-01-15T08:14:15.270Z,0.9
2024-01-15T08:15:31.000Z,0.9
2024-01-15T08:16:47.000Z,0.9
2024-01-15T08:18:03.991Z,0.9
2024-01-15T08:19:20.000Z,1
2024-01-15T08:20:36.000Z,1
2024-01-15T08:21:52.000Z,1
2024-01-15T08:23:08.964Z,1
2024-01-15T08:24:25.195Z,1
2024-01-15T08:25:41.406Z,1
2024-01-15T08:26:56.000Z,1
2024-01-15T08:28:12.000Z,1
2024-01-15T08:29:29.000Z,1.1
2024-01-15T08:30:45.000Z,1
2024-01-15T08:32:01.000Z,1.1
2024-01-15T08:33:17.000Z,1.1
2024-01-15T08:34:34.000Z,1.1
2024-01-15T08:35:50.378Z,1
2024-01-15T08:37:06.615Z,1
2024-01-15T08:38:22.000Z,1.1
2024-01-15T08:39:39.000Z,1.1
2024-01-15T08:40:55.000Z,1.1
2024-01-15T08:42:11.000Z,1.1
2024-01-15T08:43:26.000Z,1.1
2024-01-15T08:44:43.055Z,1.1
2024-01-15T08:45:59.000Z,1.1
2024-01-15T08:47:15.000Z,1.2
2024-01-15T08:48:31.804Z,1.2
2024-01-15T08:49:48.000Z,1.2
2024-01-15T08:51:04.278Z,1.2
2024-01-15T08:52:20.000Z,1.2
2024-01-15T08:53:36.000Z,1.1
2024-01-15T08:54:53.000Z,1.1
2024-01-15T08:56:09.231Z,1.2
2024-01-15T08:57:25.485Z,1.2
2024-01-15T08:58:41.719Z,1.2
2024-01-15T08:59:57.964Z,1.2
2024-01-15T09:01:13.000Z,1.2
2024-01-15T09:02:29.000Z,1.2
2024-01-15T09:03:45.000Z,1.2
2024-01-15T09:05:01.000Z,1.3
2024-01-15T09:06:18.167Z,1.2
2024-01-15T09:07:34.000Z,1.2
2024-01-15T09:08:50.665Z,1.3
2024-01-15T09:10:06.900Z,1.2
2024-01-15T09:11:23.000Z,1.3
2024-01-15T09:12:39.000Z,1.3
2024-01-15T09:13:55.000Z,1.3
2024-01-15T09:15:11.000Z,1.3
2024-01-15T09:16:28.092Z,1.4
2024-01-15T09:17:44.000Z,1.4
2024-01-15T09:18:59.000Z,1.4
2024-01-15T09:20:15.835Z,1.5
2024-01-15T09:21:32.067Z,1.4
2024-01-15T09:22:48.000Z,1.5
2024-01-15T09:24:04.547Z,1.5
2024-01-15T09:25:20.000Z,1.6
2024-01-15T09:26:37.000Z,1.6
2024-01-15T09:27:53.275Z,1.6
2024-01-15T09:29:09.000Z,1.6
2024-01-15T09:30:25.761Z,1.6
2024-01-15T09:31:41.989Z,1.6
2024-01-15T09:32:58.000Z,1.6
2024-01-15T09:34:14.000Z,1.6
2024-01-15T09:35:30.000Z,1.6
2024-01-15T09:36:45.000Z,1.6
2024-01-15T09:38:02.000Z,1.6
2024-01-15T09:39:18.000Z,1.6
2024-01-15T09:40:34.000Z,1.6
2024-01-15T09:41:50.921Z,1.6
2024-01-15T09:43:07.163Z,1.7
2024-01-15T09:44:23.000Z,1.7
2024-01-15T09:45:39.000Z,1.7
2024-01-15T09:46:55.000Z,1.8
2024-01-15T09:48:12.000Z,1.7
2024-01-15T09:49:28.365Z,1.7
2024-01-15T09:50:44.000Z,1.7
2024-01-15T09:52:00.860Z,1.7
2024-01-15T09:53:17.096Z,1.7
2024-01-15T09:54:32.339Z,1.7
2024-01-15T09:55:48.000Z,1.7
2024-01-15T09:57:04.000Z,1.7
2024-01-15T09:58:21.000Z,1.7
2024-01-15T09:59:37.000Z,1.7
2024-01-15T10:00:53.000Z,1.7
2024-01-15T10:02:09.000Z,1.7
2024-01-15T10:03:26.025Z,1.8
2024-01-15T10:04:42.260Z,1.8
2024-01-15T10:05:58.000Z,1.8
2024-01-15T10:07:14.750Z,1.8
2024-01-15T10:08:30.981Z,1.9
2024-01-15T10:09:47.000Z,1.9
2024-01-15T10:11:03.000Z,1.9
2024-01-15T10:12:18.000Z,1.9
2024-01-15T10:13:34.958Z,1.9
2024-01-15T10:14:51.204Z,1.9
2024-01-15T10:16:07.000Z,1.9
2024-01-15T10:17:23.000Z,1.9
2024-01-15T10:18:39.000Z,1.9
2024-01-15T10:19:56.000Z,1.9
2024-01-15T10:21:12.000Z,1.9
2024-01-15T10:22:28.644Z,2
2024-01-15T10:23:44.000Z,1.9
2024-01-15T10:25:01.129Z,1.9
2024-01-15T10:26:17.358Z,2
2024-01-15T10:27:33.601Z,2
2024-01-15T10:28:49.000Z,2
2024-01-15T10:30:05.000Z,2.1
2024-01-15T10:31:21.000Z,2.1
2024-01-15T10:32:37.000Z,2.1
2024-01-15T10:33:53.000Z,2.2
2024-01-15T10:35:10.054Z,2.2
2024-01-15T10:36:26.303Z,2.2
2024-01-15T10:37:42.536Z,2.1
2024-01-15T10:38:58.000Z,2.1
2024-01-15T10:40:15.000Z,2.1
2024-01-15T10:41:31.000Z,2.1
2024-01-15T10:42:47.000Z,2.1
2024-01-15T10:44:03.000Z,2.1
2024-01-15T10:45:20.000Z,2.1
2024-01-15T10:46:36.221Z,2.1
2024-01-15T10:47:51.473Z,2.1
2024-01-15T10:49:07.714Z,2.1
2024-01-15T10:50:23.952Z,2.2
2024-01-15T10:51:40.000Z,2.1
2024-01-15T10:52:56.433Z,2.1
2024-01-15T10:54:12.000Z,2.1
2024-01-15T10:55:28.000Z,2.1
2024-01-15T10:56:45.000Z,2.1
2024-01-15T10:58:01.386Z,2.1
2024-01-15T10:59:17.632Z,2.1
2024-01-15T11:00:33.873Z,2.1
2024-01-15T11:01:50.000Z,2
2024-01-15T11:03:06.000Z,2
2024-01-15T11:04:22.000Z,2
2024-01-15T11:05:37.856Z,2
2024-01-15T11:06:54.000Z,2
2024-01-15T11:08:10.327Z,2.1
2024-01-15T11:09:26.564Z,2.1
2024-01-15T11:10:42.825Z,2.1
2024-01-15T11:11:59.000Z,2.1
2024-01-15T11:13:15.288Z,2.1
2024-01-15T11:14:31.000Z,2.1
2024-01-15T11:15:47.000Z,2.1
2024-01-15T11:17:04.000Z,2.2
2024-01-15T11:18:20.000Z,2.2
2024-01-15T11:19:36.500Z,2.2
2024-01-15T11:20:52.743Z,2.2
2024-01-15T11:22:08.970Z,2.2
2024-01-15T11:23:24.233Z,2.2
2024-01-15T11:24:40.000Z,2.3
2024-01-15T11:25:56.000Z,2.3
2024-01-15T11:27:12.000Z,2.3
2024-01-15T11:28:29.000Z,2.3
2024-01-15T11:29:45.000Z,2.3
2024-01-15T11:31:01.000Z,2.3
2024-01-15T11:32:17.907Z,2.3
2024-01-15T11:33:34.166Z,2.3
2024-01-15T11:34:50.397Z,2.4
2024-01-15T11:36:06.647Z,2.4
2024-01-15T11:37:22.000Z,2.3
2024-01-15T11:38:39.000Z,2.4
2024-01-15T11:39:55.000Z,2.3
2024-01-15T11:41:10.000Z,2.4
2024-01-15T11:42:26.840Z,2.3
2024-01-15T11:43:43.082Z,2.3
2024-01-15T11:44:59.328Z,2.3
2024-01-15T11:46:15.565Z,2.3
2024-01-15T11:47:31.808Z,2.3
2024-01-15T11:48:48.000Z,2.3
2024-01-15T11:50:04.000Z,2.3
2024-01-15T11:51:20.530Z,2.3
2024-01-15T11:52:36.000Z,2.3
2024-01-15T11:53:53.000Z,2.3
2024-01-15T11:55:09.254Z,2.4
2024-01-15T11:56:25.492Z,2.4
2024-01-15T11:57:41.000Z,2.4
2024-01-15T11:58:57.000Z,2.3
2024-01-15T12:00:13.000Z,2.3
2024-01-15T12:01:29.000Z,2.3
2024-01-15T12:02:45.000Z,2.3
2024-01-15T12:04:01.000Z,2.3
2024-01-15T12:05:18.000Z,2.3
2024-01-15T12:06:34.428Z,2.4
2024-01-15T12:07:50.662Z,2.4
2024-01-15T12:09:06.000Z,2.4
2024-01-15T12:10:23.000Z,2.4
2024-01-15T12:11:39.000Z,2.5
2024-01-15T12:12:55.000Z,2.5
2024-01-15T12:14:11.000Z,2.5
2024-01-15T12:15:28.000Z,2.5
2024-01-15T12:16:43.000Z,2.6
2024-01-15T12:17:59.596Z,2.7
2024-01-15T12:19:15.833Z,2.7
2024-01-15T12:20:32.000Z,2.7
2024-01-15T12:21:48.331Z,2.7
2024-01-15T12:23:04.000Z,2.8
2024-01-15T12:24:20.000Z,2.8
2024-01-15T12:25:37.000Z,2.8
2024-01-15T12:26:53.000Z,2.8
2024-01-15T12:28:09.523Z,2.9
2024-01-15T12:29:25.765Z,2.8
2024-01-15T12:30:42.000Z,2.8
2024-01-15T12:31:58.000Z,2.8
2024-01-15T12:33:14.000Z,2.8
2024-01-15T12:34:29.000Z,2.7
2024-01-15T12:35:46.000Z,2.7
2024-01-15T12:37:02.000Z,2.7
2024-01-15T12:38:18.464Z,2.6
2024-01-15T12:39:34.701Z,2.6
2024-01-15T12:40:50.936Z,2.6
2024-01-15T12:42:06.000Z,2.6
2024-01-15T12:43:22.000Z,2.7
2024-01-15T12:44:38.675Z,2.6
2024-01-15T12:45:54.000Z,2.6
2024-01-15T12:47:11.000Z,2.6
2024-01-15T12:48:27.000Z,2.6
2024-01-15T12:49:43.630Z,2.7
2024-01-15T12:50:59.867Z,2.7
2024-01-15T12:52:16.120Z,2.6
2024-01-15T12:53:32.000Z,2.6
2024-01-15T12:54:48.000Z,2.7
2024-01-15T12:56:04.000Z,2.6
2024-01-15T12:57:21.000Z,2.7
2024-01-15T12:58:37.000Z,2.6
2024-01-15T12:59:53.684Z,2.6
2024-01-15T13:01:09.912Z,2.6
2024-01-15T13:02:26.000Z,2.6
2024-01-15T13:03:42.000Z,2.7
2024-01-15T13:04:58.000Z,2.6
2024-01-15T13:06:14.865Z,2.6
2024-01-15T13:07:31.000Z,2.6
2024-01-15T13:08:47.000Z,2.6
2024-01-15T13:10:03.589Z,2.6
2024-01-15T13:11:19.834Z,2.6
2024-01-15T13:12:36.077Z,2.6
2024-01-15T13:13:52.000Z,2.5
2024-01-15T13:15:08.548Z,2.5
2024-01-15T13:16:23.000Z,2.5
2024-01-15T13:17:40.000Z,2.5
2024-01-15T13:18:56.000Z,2.5
2024-01-15T13:20:12.000Z,2.5
2024-01-15T13:21:28.767Z,2.4
2024-01-15T13:22:45.005Z,2.5
2024-01-15T13:24:01.000Z,2.4
2024-01-15T13:25:17.000Z,2.4
2024-01-15T13:26:33.000Z,2.4
2024-01-15T13:27:49.000Z,2.4
2024-01-15T13:29:06.000Z,2.3
2024-01-15T13:30:22.000Z,2.3
2024-01-15T13:31:38.693Z,2.3
2024-01-15T13:32:53.954Z,2.3
2024-01-15T13:34:10.189Z,2.3
2024-01-15T13:35:26.000Z,2.3
2024-01-15T13:36:42.000Z,2.2
2024-01-15T13:37:58.000Z,2.2
2024-01-15T13:39:15.000Z,2.2
2024-01-15T13:40:31.000Z,2.2
2024-01-15T13:41:47.000Z,2.2
2024-01-15T13:43:03.865Z,2.2
2024-01-15T13:44:20.111Z,2.2
2024-01-15T13:45:36.347Z,2.2
2024-01-15T13:46:52.000Z,2.2
2024-01-15T13:48:08.000Z,2.2
2024-01-15T13:49:24.000Z,2.2
2024-01-15T13:50:40.000Z,2.2
2024-01-15T13:51:56.000Z,2.2
2024-01-15T13:53:12.000Z,2.2
2024-01-15T13:54:29.041Z,2.1
2024-01-15T13:55:45.278Z,2.2
2024-01-15T13:57:01.531Z,2.2
2024-01-15T13:58:17.000Z,2.2
2024-01-15T13:59:34.000Z,2.2
2024-01-15T14:00:50.000Z,2.2
2024-01-15T14:02:06.000Z,2.2
2024-01-15T14:03:22.000Z,2.2
2024-01-15T14:04:38.000Z,2.2
2024-01-15T14:05:54.216Z,2.2
2024-01-15T14:07:10.452Z,2.2
2024-01-15T14:08:26.697Z,2.2
2024-01-15T14:09:42.000Z,2.2
2024-01-15T14:10:59.000Z,2.2
2024-01-15T14:12:15.000Z,2.2
2024-01-15T14:13:31.000Z,2.2
2024-01-15T14:14:47.000Z,2.2
2024-01-15T14:16:04.000Z,2.2
2024-01-15T14:17:20.369Z,2.2
2024-01-15T14:18:36.615Z,2.2
2024-01-15T14:19:52.855Z,2.2
2024-01-15T14:21:09.000Z,2.2
2024-01-15T14:22:24.000Z,2.2
2024-01-15T14:23:40.595Z,2.2
2024-01-15T14:24:56.000Z,2.2
2024-01-15T14:26:13.000Z,2.2
2024-01-15T14:27:29.000Z,2.2
2024-01-15T14:28:45.000Z,2.2
2024-01-15T14:30:01.799Z,2.2
2024-01-15T14:31:18.041Z,2.1
2024-01-15T14:32:34.000Z,2.2
2024-01-15T14:33:50.000Z,2.2
2024-01-15T14:35:06.000Z,2.2
2024-01-15T14:36:23.000Z,2.2
2024-01-15T14:37:39.000Z,2.2
2024-01-15T14:38:54.000Z,2.1
2024-01-15T14:40:10.000Z,2.1
2024-01-15T14:41:26.964Z,2.1
2024-01-15T14:42:43.217Z,2.1
2024-01-15T14:43:59.000Z,2.1
2024-01-15T14:45:15.000Z,2.1
2024-01-15T14:46:31.000Z,2.1
2024-01-15T14:47:48.000Z,2
2024-01-15T14:49:04.000Z,2
2024-01-15T14:50:20.000Z,2
2024-01-15T14:51:36.884Z,2
2024-01-15T14:52:53.133Z,2
2024-01-15T14:54:09.000Z,2
2024-01-15T14:55:25.612Z,2
2024-01-15T14:56:40.000Z,2
2024-01-15T14:57:57.000Z,2
2024-01-15T14:59:13.000Z,1.9
2024-01-15T15:00:29.000Z,1.9
2024-01-15T15:01:45.000Z,1.9
2024-01-15T15:03:02.071Z,1.9
2024-01-15T15:04:18.306Z,1.9
2024-01-15T15:05:34.000Z,1.9
2024-01-15T15:06:50.784Z,1.9
2024-01-15T15:08:07.000Z,1.9
2024-01-15T15:09:23.000Z,1.9
2024-01-15T15:10:39.000Z,1.8
2024-01-15T15:11:55.000Z,1.8
2024-01-15T15:13:11.983Z,1.8
2024-01-15T15:14:27.246Z,1.8
2024-01-15T15:15:43.484Z,1.8
2024-01-15T15:16:59.730Z,1.8
2024-01-15T15:18:16.000Z,1.8
2024-01-15T15:19:32.000Z,1.7
2024-01-15T15:20:48.000Z,1.8
2024-01-15T15:22:04.000Z,1.7
2024-01-15T15:23:20.000Z,1.7
2024-01-15T15:24:37.166Z,1.7
2024-01-15T15:25:53.415Z,1.7
2024-01-15T15:27:09.650Z,1.7
2024-01-15T15:28:25.000Z,1.7
2024-01-15T15:29:42.000Z,1.7
2024-01-15T15:30:58.366Z,1.7
2024-01-15T15:32:13.000Z,1.7
2024-01-15T15:33:29.000Z,1.7
2024-01-15T15:34:46.000Z,1.7
2024-01-15T15:36:02.000Z,1.7
2024-01-15T15:37:18.594Z,1.7
2024-01-15T15:38:34.819Z,1.7
2024-01-15T15:39:51.000Z,1.7
2024-01-15T15:41:07.000Z,1.7
2024-01-15T15:42:23.551Z,1.7
2024-01-15T15:43:39.800Z,1.7
2024-01-15T15:44:56.030Z,1.7
2024-01-15T15:46:12.279Z,1.7
2024-01-15T15:47:28.516Z,1.6
2024-01-15T15:48:44.749Z,1.6
2024-01-15T15:50:00.013Z,1.6
2024-01-15T15:51:16.253Z,1.6
2024-01-15T15:52:32.483Z,1.6
2024-01-15T15:53:48.727Z,1.6
2024-01-15T15:55:04.000Z,1.6
2024-01-15T15:56:21.000Z,1.5
2024-01-15T15:57:37.456Z,1.5
2024-01-15T15:58:53.693Z,1.6
2024-01-15T16:00:09.940Z,1.5
2024-01-15T16:01:26.000Z,1.5
2024-01-15T16:02:42.475Z,1.5
2024-01-15T16:03:58.000Z,1.5
2024-01-15T16:05:15.000Z,1.5
2024-01-15T16:06:31.354Z,1.5
2024-01-15T16:07:46.660Z,1.5
2024-01-15T16:09:02.964Z,1.5
2024-01-15T16:10:19.254Z,1.5
2024-01-15T16:11:35.545Z,1.5
2024-01-15T16:12:51.000Z,1.5
2024-01-15T16:14:08.000Z,1.5
2024-01-15T16:15:24.000Z,1.5
2024-01-15T16:16:40.000Z,1.5
2024-01-15T16:23:02.204Z,1.4
2024-01-15T16:24:18.000Z,1.4
2024-01-15T16:25:33.798Z,1.4
2024-01-15T16:26:50.000Z,1.4
2024-01-15T16:28:06.386Z,1.4
2024-01-15T16:29:22.694Z,1.4
2024-01-15T16:30:38.987Z,1.4
2024-01-15T16:31:55.270Z,1.4
2024-01-15T16:33:11.580Z,1.4
2024-01-15T16:34:27.000Z,1.4
2024-01-15T16:35:44.000Z,1.4
2024-01-15T16:37:00.444Z,1.4
2024-01-15T16:38:16.000Z,1.4
2024-01-15T16:39:33.000Z,1.4
2024-01-15T16:40:49.342Z,1.4
2024-01-15T16:42:05.624Z,1.4
2024-01-15T16:43:20.946Z,1.4
2024-01-15T16:44:37.234Z,1.4
2024-01-15T16:45:53.522Z,1.4
2024-01-15T16:47:09.000Z,1.4
2024-01-15T16:48:26.000Z,1.4
2024-01-15T16:49:42.000Z,1.5
2024-01-15T16:50:58.000Z,1.4
2024-01-15T16:52:14.996Z,1.4
2024-01-15T16:53:31.300Z,1.5
2024-01-15T16:54:47.000Z,1.4
2024-01-15T16:56:03.000Z,1.4
2024-01-15T16:57:19.000Z,1.4
2024-01-15T16:58:35.498Z,1.4
2024-01-15T16:59:51.000Z,1.4
2024-01-15T17:01:08.000Z,1.4
2024-01-15T17:02:24.374Z,1.4
2024-01-15T17:03:40.660Z,1.4
2024-01-15T17:04:56.964Z,1.4
2024-01-15T17:06:13.000Z,1.4
2024-01-15T17:07:29.545Z,1.4
2024-01-15T17:08:45.000Z,1.4
2024-01-15T17:10:02.000Z,1.4
2024-01-15T17:11:18.000Z,1.4
2024-01-15T17:12:34.000Z,1.4
2024-01-15T17:13:50.032Z,1.4
2024-01-15T17:15:06.316Z,1.4
2024-01-15T17:16:22.621Z,1.4
2024-01-15T17:17:38.000Z,1.4
2024-01-15T17:18:55.000Z,1.4
2024-01-15T17:20:11.000Z,1.4
2024-01-15T17:21:27.000Z,1.4
2024-01-15T17:22:44.000Z,1.4
2024-01-15T17:24:00.382Z,1.4
2024-01-15T17:25:16.670Z,1.4
2024-01-15T17:26:33.000Z,1.4
2024-01-15T17:27:49.000Z,1.4
2024-01-15T17:29:05.569Z,1.4
2024-01-15T17:30:20.000Z,1.4
2024-01-15T17:31:37.000Z,1.4
2024-01-15T17:32:53.469Z,1.4
2024-01-15T17:34:09.755Z,1.3
2024-01-15T17:35:26.045Z,1.3
2024-01-15T17:36:42.329Z,1.3
2024-01-15T17:37:58.000Z,1.3
2024-01-15T17:39:14.924Z,1.3
2024-01-15T17:40:31.000Z,1.3
2024-01-15T17:41:47.511Z,1.3
2024-01-15T17:43:03.000Z,1.3